createdAt,value
2018-05-07T00:01:17.587Z,63.60
2018-05-07T00:03:44.148Z,63.60
2018-05-07T00:06:10.738Z,63.80
2018-05-07T00:08:37.274Z,63.80
2018-05-07T00:11:03.856Z,63.90
2018-05-07T00:13:30.755Z,64.20
2018-05-07T00:15:57.344Z,64.20
2018-05-07T00:18:24.282Z,64.90
2018-05-07T00:20:50.861Z,64.90
2018-05-07T00:23:17.780Z,65.10
2018-05-07T00:25:44.329Z,65.10
2018-05-07T00:28:10.900Z,65.30
2018-05-07T00:30:37.820Z,65.70
2018-05-07T00:33:04.388Z,65.70
2018-05-07T00:35:30.984Z,65.70
2018-05-07T00:37:57.536Z,66.00
2018-05-07T00:40:24.102Z,65.90
2018-05-07T00:42:50.615Z,66.50
2018-05-07T00:45:17.176Z,66.50
2018-05-07T00:47:43.748Z,66.20
2018-05-07T00:50:10.268Z,66.30
2018-05-07T00:52:36.840Z,66.20
2018-05-07T00:55:15.476Z,66.30
2018-05-07T00:57:42.037Z,66.30
2018-05-07T01:00:08.613Z,66.30
2018-05-07T01:02:35.515Z,66.80
2018-05-07T01:05:02.065Z,66.70
2018-05-07T01:07:28.613Z,66.70
2018-05-07T01:09:55.204Z,66.60
2018-05-07T01:12:21.769Z,66.40
2018-05-07T01:14:48.297Z,66.60
2018-05-07T01:17:14.874Z,66.80
2018-05-07T01:19:41.408Z,67.10
2018-05-07T01:22:08.328Z,67.20
2018-05-07T01:24:34.884Z,67.20
2018-05-07T01:27:01.408Z,67.50
2018-05-07T01:29:27.980Z,67.40
2018-05-07T01:31:54.541Z,67.70
2018-05-07T01:34:21.484Z,67.70
2018-05-07T01:36:48.072Z,67.70
2018-05-07T01:39:14.609Z,67.80
2018-05-07T01:41:41.185Z,67.70
2018-05-07T01:44:07.724Z,67.70
2018-05-07T01:46:34.345Z,67.90
2018-05-07T01:49:01.277Z,68.00
2018-05-07T01:51:27.828Z,68.00
2018-05-07T01:53:54.418Z,67.80
2018-05-07T01:56:20.948Z,68.00
2018-05-07T01:58:47.891Z,68.70
2018-05-07T02:01:14.821Z,68.20
2018-05-07T02:03:41.349Z,68.20
2018-05-07T02:06:07.925Z,68.20
2018-05-07T02:08:34.460Z,68.30
2018-05-07T02:11:00.975Z,68.30
2018-05-07T02:13:27.543Z,68.30
2018-05-07T02:15:54.120Z,68.40
2018-05-07T02:18:21.016Z,68.40
2018-05-07T02:20:47.569Z,68.40
2018-05-07T02:23:14.095Z,68.40
2018-05-07T02:28:35.220Z,68.70
2018-05-07T02:31:01.774Z,68.40
2018-05-07T02:33:28.760Z,68.80
2018-05-07T02:35:55.346Z,68.80
2018-05-07T02:38:21.941Z,69.00
2018-05-07T02:40:48.840Z,69.20
2018-05-07T02:43:15.368Z,69.20
2018-05-07T02:45:41.940Z,69.30
2018-05-07T02:48:08.504Z,69.10
2018-05-07T02:50:35.053Z,69.50
2018-05-07T02:53:01.629Z,69.40
2018-05-07T02:55:28.556Z,69.70
2018-05-07T02:57:55.156Z,69.70
2018-05-07T03:00:21.716Z,69.80
2018-05-07T03:02:48.248Z,69.80
2018-05-07T03:05:14.818Z,70.00
2018-05-07T03:07:41.397Z,70.20
2018-05-07T03:10:07.927Z,70.20
2018-05-07T03:12:34.472Z,70.00
2018-05-07T03:15:00.996Z,69.90
2018-05-07T03:17:27.606Z,70.20
2018-05-07T03:19:54.586Z,70.60
2018-05-07T03:22:28.181Z,70.60
2018-05-07T03:24:54.781Z,70.60
2018-05-07T03:27:21.336Z,70.40
2018-05-07T03:29:47.901Z,70.60
2018-05-07T03:32:14.415Z,70.40
2018-05-07T03:34:40.971Z,70.70
2018-05-07T03:37:07.577Z,70.90
2018-05-07T03:39:34.480Z,71.10
2018-05-07T03:42:01.036Z,71.10
2018-05-07T03:44:27.568Z,71.20
2018-05-07T03:46:54.178Z,71.20
2018-05-07T03:49:20.705Z,71.10
2018-05-07T03:51:47.590Z,70.90
2018-05-07T03:54:14.144Z,70.90
2018-05-07T03:56:40.667Z,71.20
2018-05-07T03:59:07.584Z,70.80
2018-05-07T04:01:34.155Z,70.80
2018-05-07T04:04:00.671Z,70.80
2018-05-07T04:06:27.289Z,71.00
2018-05-07T04:08:53.836Z,70.80
2018-05-07T04:11:20.408Z,71.40
2018-05-07T04:13:46.967Z,71.20
2018-05-07T04:19:26.403Z,70.90
2018-05-07T04:22:05.017Z,70.90
2018-05-07T04:24:31.943Z,71.40
2018-05-07T04:26:58.505Z,71.30
2018-05-07T04:29:25.505Z,70.90
2018-05-07T04:31:52.060Z,70.90
2018-05-07T04:34:18.603Z,71.00
2018-05-07T04:36:45.284Z,71.20
2018-05-07T04:39:11.909Z,70.90
2018-05-07T04:41:38.567Z,70.50
2018-05-07T04:44:05.084Z,70.80
2018-05-07T04:46:31.644Z,71.10
2018-05-07T04:48:58.232Z,70.60
2018-05-07T04:51:24.804Z,71.10
2018-05-07T04:53:51.392Z,71.10
2018-05-07T04:56:17.947Z,70.70
2018-05-07T04:58:44.576Z,71.10
2018-05-07T05:01:11.184Z,70.70
2018-05-07T05:03:37.708Z,69.90
2018-05-07T05:06:04.276Z,69.30
2018-05-07T05:08:30.787Z,68.70
2018-05-07T05:10:57.388Z,68.30
2018-05-07T05:13:24.333Z,65.70
2018-05-07T05:15:50.872Z,65.70
2018-05-07T05:18:17.549Z,65.70
2018-05-07T05:20:44.459Z,64.50
2018-05-07T05:23:11.019Z,64.50
2018-05-07T05:25:37.632Z,64.00
2018-05-07T05:28:04.167Z,64.20
2018-05-07T05:30:30.716Z,63.40
2018-05-07T05:32:57.281Z,63.60
2018-05-07T05:35:23.852Z,63.50
2018-05-07T05:37:50.416Z,63.70
2018-05-07T05:40:17.028Z,63.60
2018-05-07T05:42:43.688Z,63.30
2018-05-07T05:45:10.299Z,63.40
2018-05-07T05:47:36.885Z,63.30
2018-05-07T05:50:03.571Z,62.80
2018-05-07T05:52:30.091Z,62.90
2018-05-07T05:54:56.668Z,63.00
2018-05-07T05:57:23.608Z,63.60
2018-05-07T05:59:50.197Z,63.60
2018-05-07T06:02:16.812Z,62.60
2018-05-07T06:04:43.731Z,61.60
2018-05-07T06:07:10.322Z,61.60
2018-05-07T06:09:37.241Z,61.10
2018-05-07T06:12:03.815Z,61.10
2018-05-07T06:14:37.438Z,61.90
2018-05-07T06:17:04.269Z,60.40
2018-05-07T06:19:30.825Z,60.40
2018-05-07T06:21:57.367Z,60.40
2018-05-07T06:24:23.957Z,61.10
2018-05-07T06:26:50.502Z,61.20
2018-05-07T06:29:17.096Z,59.30
2018-05-07T06:31:43.648Z,59.10
2018-05-07T06:34:10.164Z,59.10
2018-05-07T06:36:36.752Z,59.90
2018-05-07T06:39:03.408Z,60.30
2018-05-07T06:41:29.976Z,60.60
2018-05-07T06:43:56.547Z,59.90
2018-05-07T06:46:23.133Z,59.30
2018-05-07T06:48:50.104Z,60.50
2018-05-07T06:51:17.064Z,61.20
2018-05-07T06:53:43.604Z,61.20
2018-05-07T06:56:10.196Z,59.20
2018-05-07T06:58:37.167Z,59.50
2018-05-07T07:01:03.709Z,59.50
2018-05-07T07:03:30.652Z,59.50
2018-05-07T07:05:57.581Z,58.80
2018-05-07T07:08:24.275Z,58.80
2018-05-07T07:10:51.124Z,59.50
2018-05-07T07:13:18.037Z,58.00
2018-05-07T07:15:44.621Z,58.00
2018-05-07T07:18:17.937Z,57.60
2018-05-07T07:20:44.503Z,57.80
2018-05-07T07:23:11.092Z,57.20
2018-05-07T07:25:37.648Z,57.20
2018-05-07T07:28:04.244Z,57.30
2018-05-07T07:30:30.760Z,57.50
2018-05-07T07:32:57.695Z,56.40
2018-05-07T07:35:24.285Z,56.50
2018-05-07T07:37:50.820Z,57.20
2018-05-07T07:40:17.768Z,56.10
2018-05-07T07:42:44.688Z,55.80
2018-05-07T07:45:11.265Z,55.80
2018-05-07T07:47:38.232Z,56.40
2018-05-07T07:50:05.132Z,55.60
2018-05-07T07:52:31.749Z,55.60
2018-05-07T07:54:58.667Z,55.50
2018-05-07T07:57:25.240Z,55.50
2018-05-07T07:59:52.172Z,55.80
2018-05-07T08:02:18.764Z,55.80
2018-05-07T08:04:45.333Z,54.90
2018-05-07T08:07:11.877Z,54.90
2018-05-07T08:09:38.453Z,54.30
2018-05-07T08:12:05.114Z,55.70
2018-05-07T08:14:31.584Z,55.90
2018-05-07T08:16:58.152Z,55.50
2018-05-07T08:19:24.687Z,54.60
2018-05-07T08:21:51.249Z,54.50
2018-05-07T08:24:17.812Z,55.50
2018-05-07T08:26:44.332Z,55.60
2018-05-07T08:29:10.905Z,54.40
2018-05-07T08:31:37.443Z,54.60
2018-05-07T08:34:04.003Z,54.90
2018-05-07T08:36:30.660Z,55.70
2018-05-07T08:38:57.161Z,55.50
2018-05-07T08:41:24.095Z,54.30
2018-05-07T08:43:50.634Z,54.30
2018-05-07T08:46:17.313Z,54.30
2018-05-07T08:48:44.252Z,55.30
2018-05-07T08:51:10.841Z,55.30
2018-05-07T08:53:37.740Z,53.90
2018-05-07T08:56:04.285Z,53.90
2018-05-07T08:58:30.899Z,54.90
2018-05-07T09:00:57.463Z,54.30
2018-05-07T09:03:23.995Z,54.00
2018-05-07T09:05:50.551Z,53.90
2018-05-07T09:08:17.091Z,53.70
2018-05-07T09:10:43.717Z,53.50
2018-05-07T09:13:10.288Z,53.20
2018-05-07T09:15:36.824Z,52.70
2018-05-07T09:18:03.391Z,52.80
2018-05-07T09:20:29.919Z,53.20
2018-05-07T09:22:56.486Z,53.00
2018-05-07T09:25:23.048Z,52.90
2018-05-07T09:27:49.573Z,53.00
2018-05-07T09:30:16.160Z,51.20
2018-05-07T09:32:42.681Z,52.40
2018-05-07T09:35:09.240Z,52.10
2018-05-07T09:37:35.800Z,53.90
2018-05-07T09:40:02.371Z,54.10
2018-05-07T09:42:29.313Z,52.80
2018-05-07T09:44:56.207Z,53.20
2018-05-07T09:47:22.783Z,53.20
2018-05-07T09:49:49.336Z,53.10
2018-05-07T09:52:15.936Z,52.80
2018-05-07T09:54:42.554Z,51.00
2018-05-07T09:57:09.171Z,52.30
2018-05-07T09:59:35.695Z,52.80
2018-05-07T10:02:02.288Z,51.30
2018-05-07T10:04:28.853Z,50.80
2018-05-07T10:06:55.387Z,51.00
2018-05-07T10:09:21.940Z,50.60
2018-05-07T10:11:48.515Z,51.90
2018-05-07T10:14:15.069Z,51.00
2018-05-07T10:16:42.255Z,51.10
2018-05-07T10:19:08.778Z,51.10
2018-05-07T10:21:35.396Z,51.30
2018-05-07T10:24:02.336Z,51.50
2018-05-07T10:26:28.869Z,51.50
2018-05-07T10:28:55.432Z,50.90
2018-05-07T10:31:21.957Z,50.00
2018-05-07T10:33:48.516Z,49.40
2018-05-07T10:36:15.095Z,49.50
2018-05-07T10:38:41.997Z,49.70
2018-05-07T10:41:08.559Z,49.60
2018-05-07T10:43:35.136Z,49.70
2018-05-07T10:46:01.732Z,51.30
2018-05-07T10:48:28.347Z,50.60
2018-05-07T10:50:54.952Z,52.10
2018-05-07T10:53:21.504Z,49.20
2018-05-07T10:55:48.040Z,49.60
2018-05-07T10:58:14.612Z,48.80
2018-05-07T11:00:41.169Z,48.80
2018-05-07T11:03:07.712Z,47.40
2018-05-07T11:05:34.277Z,48.50
2018-05-07T11:08:01.173Z,48.30
2018-05-07T11:10:27.741Z,48.30
2018-05-07T11:12:54.301Z,48.00
2018-05-07T11:15:20.816Z,49.10
2018-05-07T11:17:47.392Z,48.90
2018-05-07T11:20:13.928Z,48.60
2018-05-07T11:22:40.488Z,47.00
2018-05-07T11:25:07.072Z,48.00
2018-05-07T11:27:33.962Z,48.20
2018-05-07T11:30:00.518Z,48.20
2018-05-07T11:32:27.115Z,47.60
2018-05-07T11:34:54.044Z,47.70
2018-05-07T11:37:20.620Z,47.70
2018-05-07T11:39:47.152Z,47.60
2018-05-07T11:42:14.013Z,47.30
2018-05-07T11:44:40.904Z,47.20
2018-05-07T11:47:07.509Z,47.20
2018-05-07T11:49:34.068Z,47.00
2018-05-07T11:52:01.001Z,48.20
2018-05-07T11:54:27.559Z,48.20
2018-05-07T11:56:54.134Z,47.50
2018-05-07T11:59:21.064Z,47.30
2018-05-07T12:01:47.632Z,47.30
2018-05-07T12:04:14.543Z,48.30
2018-05-07T12:06:41.112Z,48.30
2018-05-07T12:09:07.705Z,48.40
2018-05-07T12:11:34.239Z,48.30
2018-05-07T12:14:00.797Z,48.20
2018-05-07T12:16:27.349Z,47.90
2018-05-07T12:18:53.900Z,48.90
2018-05-07T12:21:20.486Z,49.10
2018-05-07T12:23:47.047Z,47.90
2018-05-07T12:26:13.614Z,47.20
2018-05-07T12:28:40.517Z,47.50
2018-05-07T12:31:07.090Z,47.50
2018-05-07T12:33:33.634Z,48.30
2018-05-07T12:36:00.208Z,48.40
2018-05-07T12:38:27.135Z,46.50
2018-05-07T12:40:53.651Z,46.50
2018-05-07T12:43:20.199Z,46.60
2018-05-07T12:45:46.771Z,46.60
2018-05-07T12:48:13.364Z,45.90
2018-05-07T12:50:39.916Z,46.70
2018-05-07T12:53:06.856Z,47.70
2018-05-07T12:55:33.433Z,47.70
2018-05-07T12:58:00.346Z,45.20
2018-05-07T13:00:26.934Z,45.20
2018-05-07T13:02:53.499Z,45.00
2018-05-07T13:05:20.030Z,44.30
2018-05-07T13:07:46.981Z,45.30
2018-05-07T13:10:13.882Z,44.90
2018-05-07T13:12:40.473Z,44.90
2018-05-07T13:15:07.096Z,45.00
2018-05-07T13:17:33.700Z,45.00
2018-05-07T13:20:00.267Z,44.20
2018-05-07T13:22:26.899Z,43.40
2018-05-07T13:24:53.513Z,44.80
2018-05-07T13:27:20.232Z,44.80
2018-05-07T13:29:46.799Z,45.10
2018-05-07T13:32:13.369Z,44.50
2018-05-07T13:34:40.424Z,44.60
2018-05-07T13:37:07.365Z,43.10
2018-05-07T13:39:33.912Z,43.20
2018-05-07T13:42:00.440Z,42.90
2018-05-07T13:44:27.007Z,43.90
2018-05-07T13:46:53.565Z,43.60
2018-05-07T13:49:20.092Z,43.80
2018-05-07T13:51:46.701Z,45.20
2018-05-07T13:54:13.601Z,45.80
2018-05-07T13:56:40.161Z,42.90
2018-05-07T13:59:06.779Z,44.20
2018-05-07T14:01:33.316Z,43.90
2018-05-07T14:03:59.880Z,44.70
2018-05-07T14:06:26.422Z,44.00
2018-05-07T14:08:53.041Z,44.30
2018-05-07T14:11:19.616Z,45.20
2018-05-07T14:13:46.164Z,44.90
2018-05-07T14:16:12.739Z,45.00
2018-05-07T14:18:39.260Z,44.00
2018-05-07T14:21:05.825Z,43.80
2018-05-07T14:23:32.404Z,44.60
2018-05-07T14:25:59.309Z,44.10
2018-05-07T14:28:25.882Z,44.10
2018-05-07T14:30:52.409Z,45.30
2018-05-07T14:33:18.975Z,45.80
2018-05-07T14:35:45.564Z,45.40
2018-05-07T14:38:12.104Z,46.30
2018-05-07T14:40:38.684Z,46.10
2018-05-07T14:43:05.229Z,45.70
2018-05-07T14:45:31.899Z,43.80
2018-05-07T14:47:58.476Z,44.20
2018-05-07T14:50:25.394Z,44.10
2018-05-07T14:52:52.426Z,45.60
2018-05-07T14:55:18.961Z,45.60
2018-05-07T14:57:45.530Z,45.40
2018-05-07T15:00:12.119Z,46.50
2018-05-07T15:02:38.659Z,45.80
2018-05-07T15:05:05.256Z,46.70
2018-05-07T15:07:31.788Z,45.70
2018-05-07T15:09:58.746Z,45.30
2018-05-07T15:12:25.681Z,46.20
2018-05-07T15:14:52.605Z,47.00
2018-05-07T15:17:19.180Z,47.00
2018-05-07T15:19:45.734Z,47.40
2018-05-07T15:22:12.664Z,46.60
2018-05-07T15:24:45.352Z,46.60
2018-05-07T15:27:11.935Z,47.50
2018-05-07T15:29:38.871Z,48.80
2018-05-07T15:32:05.431Z,48.80
2018-05-07T15:34:32.034Z,47.50
2018-05-07T15:36:58.602Z,47.30
2018-05-07T15:39:25.133Z,45.80
2018-05-07T15:41:51.684Z,46.40
2018-05-07T15:44:18.230Z,46.70
2018-05-07T15:46:44.816Z,46.90
2018-05-07T15:49:11.421Z,47.70
2018-05-07T15:51:38.033Z,48.90
2018-05-07T15:54:05.106Z,48.00
2018-05-07T15:56:31.721Z,48.00
2018-05-07T15:58:58.737Z,49.50
2018-05-07T16:01:25.304Z,49.50
2018-05-07T16:03:51.845Z,47.90
2018-05-07T16:06:18.418Z,48.00
2018-05-07T16:08:45.355Z,48.80
2018-05-07T16:11:11.892Z,48.80
2018-05-07T16:13:38.457Z,49.30
2018-05-07T16:16:05.012Z,49.10
2018-05-07T16:18:31.600Z,49.60
2018-05-07T16:23:52.361Z,48.60
2018-05-07T16:26:18.963Z,48.80
2018-05-07T16:28:45.926Z,48.90
2018-05-07T16:31:12.884Z,48.90
2018-05-07T16:33:39.445Z,49.00
2018-05-07T16:36:06.060Z,49.10
2018-05-07T16:38:32.701Z,48.90
2018-05-07T16:40:59.673Z,50.00
2018-05-07T16:43:26.652Z,51.20
2018-05-07T16:45:53.552Z,50.50
2018-05-07T16:48:20.275Z,50.50
2018-05-07T16:50:46.740Z,50.90
2018-05-07T16:53:13.291Z,50.40
2018-05-07T16:55:39.855Z,50.80
2018-05-07T16:58:06.471Z,51.00
2018-05-07T17:00:33.044Z,51.30
2018-05-07T17:02:59.616Z,51.00
2018-05-07T17:05:26.591Z,50.10
2018-05-07T17:07:53.512Z,49.70
2018-05-07T17:10:20.087Z,49.70
2018-05-07T17:12:47.045Z,51.10
2018-05-07T17:15:13.944Z,51.30
2018-05-07T17:17:40.495Z,51.30
2018-05-07T17:20:07.038Z,51.70
2018-05-07T17:22:33.605Z,51.40
2018-05-07T17:25:00.176Z,51.70
2018-05-07T17:27:26.732Z,51.70
2018-05-07T17:29:53.325Z,51.40
2018-05-07T17:32:19.849Z,51.40
2018-05-07T17:34:46.452Z,51.50
2018-05-07T17:37:13.048Z,52.10
2018-05-07T17:39:39.595Z,51.90
2018-05-07T17:42:06.164Z,52.00
2018-05-07T17:44:44.980Z,52.20
2018-05-07T17:47:23.840Z,52.70
2018-05-07T17:49:50.372Z,51.90
2018-05-07T17:52:16.958Z,52.10
2018-05-07T17:54:43.493Z,52.20
2018-05-07T17:57:10.088Z,52.50
2018-05-07T17:59:37.141Z,52.60
2018-05-07T18:02:03.680Z,52.60
2018-05-07T18:04:30.253Z,52.70
2018-05-07T18:06:57.160Z,52.60
2018-05-07T18:09:23.783Z,52.60
2018-05-07T18:11:50.343Z,52.80
2018-05-07T18:14:16.864Z,52.80
2018-05-07T18:16:43.427Z,52.90
2018-05-07T18:19:09.960Z,53.10
2018-05-07T18:21:36.609Z,53.40
2018-05-07T18:24:03.268Z,53.80
2018-05-07T18:26:30.106Z,53.90
2018-05-07T18:28:56.713Z,54.00
2018-05-07T18:31:23.648Z,54.50
2018-05-07T18:33:50.216Z,54.50
2018-05-07T18:36:16.813Z,54.60
2018-05-07T18:38:43.386Z,54.70
2018-05-07T18:41:09.960Z,55.10
2018-05-07T18:43:36.495Z,55.40
2018-05-07T18:46:03.910Z,55.70
2018-05-07T18:48:30.447Z,56.00
2018-05-07T18:50:56.992Z,56.00
2018-05-07T18:53:24.224Z,56.10
2018-05-07T18:55:50.772Z,56.40
2018-05-07T18:58:17.361Z,56.70
2018-05-07T19:00:43.987Z,57.00
2018-05-07T19:03:11.321Z,57.10
2018-05-07T19:05:37.910Z,57.10
2018-05-07T19:08:04.502Z,57.20
2018-05-07T19:10:31.457Z,57.60
2018-05-07T19:12:58.429Z,57.70
2018-05-07T19:15:24.984Z,57.70
2018-05-07T19:17:51.548Z,57.60
2018-05-07T19:20:18.113Z,57.70
2018-05-07T19:22:45.181Z,58.20
2018-05-07T19:25:11.795Z,58.30
2018-05-07T19:27:38.348Z,58.40
2018-05-07T19:30:04.971Z,58.40
2018-05-07T19:32:32.324Z,58.50
2018-05-07T19:34:58.940Z,58.70
2018-05-07T19:37:25.533Z,59.10
2018-05-07T19:39:52.147Z,59.90
2018-05-07T19:42:19.300Z,60.60
2018-05-07T19:44:45.873Z,59.80
2018-05-07T19:47:12.824Z,60.50
2018-05-07T19:49:40.825Z,61.20
2018-05-07T19:52:07.765Z,61.40
2018-05-07T19:54:34.709Z,61.20
2018-05-07T19:57:01.912Z,61.20
2018-05-07T19:59:28.508Z,61.20
2018-05-07T20:01:55.253Z,61.60
2018-05-07T20:04:21.797Z,61.80
2018-05-07T20:06:48.440Z,62.10
2018-05-07T20:09:15.013Z,61.70
2018-05-07T20:11:48.564Z,61.40
2018-05-07T20:14:15.181Z,61.60
2018-05-07T20:16:42.111Z,62.00
2018-05-07T20:19:08.680Z,62.00
2018-05-07T20:21:35.252Z,62.60
2018-05-07T20:24:02.220Z,62.60
2018-05-07T20:26:28.796Z,62.60
2018-05-07T20:28:55.344Z,62.90
2018-05-07T20:31:21.924Z,63.00
2018-05-07T20:33:48.557Z,63.40
2018-05-07T20:36:15.125Z,63.30
2018-05-07T20:38:42.075Z,63.00
2018-05-07T20:41:08.697Z,63.00
2018-05-07T20:43:35.239Z,63.00
2018-05-07T20:46:01.878Z,63.50
2018-05-07T20:48:28.412Z,63.10
2018-05-07T20:50:54.987Z,63.30
2018-05-07T20:53:21.588Z,64.10
2018-05-07T20:55:48.500Z,64.00
2018-05-07T20:58:15.165Z,64.00
2018-05-07T21:00:41.740Z,63.80
2018-05-07T21:03:08.711Z,63.90
2018-05-07T21:05:35.289Z,63.90
2018-05-07T21:08:01.847Z,64.10
2018-05-07T21:10:28.420Z,64.30
2018-05-07T21:12:54.961Z,64.90
2018-05-07T21:15:21.560Z,65.10
2018-05-07T21:17:48.176Z,64.90
2018-05-07T21:20:15.128Z,65.30
2018-05-07T21:22:42.128Z,65.40
2018-05-07T21:25:08.761Z,65.40
2018-05-07T21:27:35.327Z,65.40
2018-05-07T21:30:01.904Z,65.30
2018-05-07T21:32:28.454Z,65.90
2018-05-07T21:34:55.048Z,66.40
2018-05-07T21:37:22.232Z,66.00
2018-05-07T21:40:03.934Z,66.00
2018-05-07T21:42:30.783Z,66.10
2018-05-07T21:44:57.393Z,66.20
2018-05-07T21:47:23.981Z,66.20
2018-05-07T21:49:50.528Z,66.20
2018-05-07T21:52:17.125Z,66.00
2018-05-07T21:54:43.694Z,65.80
2018-05-07T21:57:10.248Z,66.10
2018-05-07T21:59:37.200Z,66.90
2018-05-07T22:02:04.181Z,67.00
2018-05-07T22:04:30.759Z,67.00
2018-05-07T22:06:57.346Z,67.10
2018-05-07T22:09:23.936Z,66.60
2018-05-07T22:11:50.520Z,66.40
2018-05-07T22:14:17.156Z,66.90
2018-05-07T22:16:43.740Z,66.90
2018-05-07T22:19:10.312Z,67.00
2018-05-07T22:21:37.219Z,67.10
2018-05-07T22:24:03.831Z,67.10
2018-05-07T22:26:30.400Z,67.50
2018-05-07T22:28:56.992Z,67.60
2018-05-07T22:31:23.604Z,67.60
2018-05-07T22:33:50.136Z,67.70
2018-05-07T22:36:16.740Z,67.80
2018-05-07T22:38:43.663Z,67.50
2018-05-07T22:41:10.240Z,67.50
2018-05-07T22:43:37.200Z,67.50
2018-05-07T22:46:04.156Z,67.70
2018-05-07T22:48:31.096Z,67.70
2018-05-07T22:50:57.639Z,67.70
2018-05-07T22:53:24.212Z,68.00
2018-05-07T22:55:50.810Z,68.40
2018-05-07T22:58:17.363Z,68.40
2018-05-07T23:00:44.065Z,68.40
2018-05-07T23:03:10.624Z,68.40
2018-05-07T23:05:37.190Z,68.40
2018-05-07T23:08:03.787Z,68.50
2018-05-07T23:10:30.346Z,68.30
2018-05-07T23:12:57.308Z,68.10
2018-05-07T23:15:24.208Z,68.30
2018-05-07T23:17:50.773Z,68.30
2018-05-07T23:20:17.419Z,68.10
2018-05-07T23:22:43.979Z,68.00
2018-05-07T23:25:10.556Z,68.00
2018-05-07T23:27:37.467Z,68.30
2018-05-07T23:30:04.076Z,68.30
2018-05-07T23:32:30.707Z,68.50
2018-05-07T23:34:57.651Z,68.70
2018-05-07T23:37:31.789Z,68.30
2018-05-07T23:39:58.724Z,67.90
2018-05-07T23:42:25.728Z,67.90
2018-05-07T23:44:52.300Z,67.90
2018-05-07T23:47:18.894Z,68.40
2018-05-07T23:49:45.845Z,68.10
2018-05-07T23:52:12.759Z,67.90
2018-05-07T23:54:39.341Z,67.90
2018-05-07T23:57:06.294Z,68.00
2018-05-07T23:59:32.858Z,67.90
